createdAt,value
2022-08-07T00:03:00.999Z,96203.91
2022-08-07T00:08:23.822Z,96194.41
2022-08-07T00:13:27.379Z,96200.22
2022-08-07T00:18:29.942Z,96203.44
2022-08-07T00:23:34.740Z,96196.59
2022-08-07T00:28:45.548Z,96185.63
2022-08-07T00:33:56.099Z,96173.59
2022-08-07T00:38:58.684Z,96169.75
2022-08-07T00:44:22.820Z,96163.75
2022-08-07T00:50:18.980Z,96169.28
2022-08-07T00:56:00.210Z,96174.47
2022-08-07T01:01:00.277Z,96159.88
2022-08-07T01:06:21.847Z,96153.41
2022-08-07T01:12:10.211Z,96143.31
2022-08-07T01:16:48.120Z,96141.19
2022-08-07T01:21:55.362Z,96135.31
2022-08-07T01:27:05.598Z,96137.88
2022-08-07T01:32:23.778Z,96136.53
2022-08-07T01:37:29.902Z,96142.50
2022-08-07T01:42:57.532Z,96132.09
2022-08-07T01:48:20.223Z,96133.59
2022-08-07T01:54:00.802Z,96135.28
2022-08-07T01:59:05.700Z,96135.19
2022-08-07T02:04:55.895Z,96140.13
2022-08-07T02:10:07.939Z,96128.31
2022-08-07T02:15:26.383Z,96133.13
2022-08-07T02:20:32.261Z,96137.41
2022-08-07T02:26:31.144Z,96134.13
2022-08-07T02:31:10.268Z,96130.13
2022-08-07T02:36:32.803Z,96118.16
2022-08-07T02:41:47.314Z,96110.50
2022-08-07T02:46:56.942Z,96097.38
2022-08-07T02:52:05.140Z,96090.41
2022-08-07T02:57:14.318Z,96092.00
2022-08-07T03:02:37.418Z,96095.59
2022-08-07T03:08:07.102Z,96099.00
2022-08-07T03:13:28.790Z,96104.72
2022-08-07T03:18:44.134Z,96107.91
2022-08-07T03:24:19.075Z,96093.03
2022-08-07T03:29:15.421Z,96103.13
2022-08-07T03:34:27.433Z,96103.97
2022-08-07T03:40:07.345Z,96112.50
2022-08-07T03:45:29.935Z,96116.59
2022-08-07T03:50:55.911Z,96108.91
2022-08-07T03:56:13.603Z,96118.63
2022-08-07T04:01:29.807Z,96108.72
2022-08-07T04:06:38.852Z,96106.81
2022-08-07T04:12:27.825Z,96104.53
2022-08-07T04:18:30.898Z,96108.50
2022-08-07T04:22:53.096Z,96111.38
2022-08-07T04:28:15.092Z,96113.72
2022-08-07T04:33:19.323Z,96122.94
2022-08-07T04:38:43.221Z,96124.66
2022-08-07T04:44:09.771Z,96129.38
2022-08-07T04:49:37.535Z,96134.16
2022-08-07T04:55:15.587Z,96132.84
2022-08-07T05:00:47.993Z,96131.94
2022-08-07T05:06:19.821Z,96129.50
2022-08-07T05:11:58.627Z,96134.56
2022-08-07T05:17:17.493Z,96137.00
2022-08-07T05:22:38.961Z,96137.38
2022-08-07T05:28:03.270Z,96135.41
2022-08-07T05:33:30.541Z,96143.28
2022-08-07T05:39:00.331Z,96148.03
2022-08-07T05:44:08.354Z,96152.88
2022-08-07T05:49:41.033Z,96150.56
2022-08-07T05:54:55.479Z,96153.97
2022-08-07T06:00:17.972Z,96167.00
2022-08-07T06:05:35.502Z,96171.66
2022-08-07T06:10:45.745Z,96175.56
2022-08-07T06:16:08.341Z,96172.09
2022-08-07T06:22:14.842Z,96171.41
2022-08-07T06:26:56.880Z,96165.34
2022-08-07T06:31:59.202Z,96157.69
2022-08-07T06:37:07.821Z,96159.78
2022-08-07T06:42:33.049Z,96153.47
2022-08-07T06:48:05.362Z,96158.75
2022-08-07T06:55:27.817Z,96154.81
2022-08-07T07:00:12.995Z,96155.53
2022-08-07T07:04:40.164Z,96148.31
2022-08-07T07:09:58.440Z,96154.13
2022-08-07T07:15:00.920Z,96155.84
2022-08-07T07:20:12.032Z,96146.47
2022-08-07T07:26:32.140Z,96152.69
2022-08-07T07:31:17.235Z,96149.75
2022-08-07T07:36:32.458Z,96151.13
2022-08-07T07:42:01.836Z,96146.28
2022-08-07T07:47:14.149Z,96152.59
2022-08-07T07:52:23.535Z,96148.25
2022-08-07T07:57:53.111Z,96151.31
2022-08-07T08:03:06.111Z,96154.50
2022-08-07T08:08:33.793Z,96146.88
2022-08-07T08:13:55.315Z,96151.19
2022-08-07T08:19:09.811Z,96151.47
2022-08-07T08:24:44.976Z,96152.03
2022-08-07T08:30:09.320Z,96159.09
2022-08-07T08:35:39.524Z,96159.09
2022-08-07T08:41:15.662Z,96166.03
2022-08-07T08:46:40.555Z,96175.63
2022-08-07T08:52:19.002Z,96170.72
2022-08-07T08:57:49.831Z,96179.00
2022-08-07T09:03:49.399Z,96173.66
2022-08-07T09:08:57.502Z,96172.44
2022-08-07T09:14:36.624Z,96172.28
2022-08-07T09:19:55.982Z,96180.72
2022-08-07T09:25:17.514Z,96174.34
2022-08-07T09:30:25.583Z,96173.09
2022-08-07T09:36:04.048Z,96175.75
2022-08-07T09:41:27.696Z,96183.25
2022-08-07T09:47:50.388Z,96185.84
2022-08-07T09:52:48.570Z,96184.03
2022-08-07T09:58:32.454Z,96178.06
2022-08-07T10:04:05.292Z,96186.59
2022-08-07T10:10:00.755Z,96190.38
2022-08-07T10:15:19.019Z,96182.78
2022-08-07T10:20:30.503Z,96177.00
2022-08-07T10:25:56.180Z,96187.59
2022-08-07T10:31:01.782Z,96176.06
2022-08-07T10:36:37.661Z,96185.38
2022-08-07T10:42:00.234Z,96176.75
2022-08-07T10:47:51.594Z,96182.38
2022-08-07T10:53:51.142Z,96180.25
2022-08-07T10:59:22.197Z,96174.97
2022-08-07T11:04:52.509Z,96177.88
2022-08-07T11:10:19.800Z,96177.16
2022-08-07T11:15:31.914Z,96173.44
2022-08-07T11:20:59.853Z,96164.66
2022-08-07T11:26:56.321Z,96164.69
2022-08-07T11:32:25.676Z,96159.31
2022-08-07T11:37:58.479Z,96150.66
2022-08-07T11:43:41.480Z,96152.03
2022-08-07T11:49:27.799Z,96145.69
2022-08-07T11:54:54.434Z,96147.44
2022-08-07T12:00:19.073Z,96153.84
2022-08-07T12:05:49.043Z,96149.53
2022-08-07T12:11:21.341Z,96145.50
2022-08-07T12:16:35.822Z,96143.34
2022-08-07T12:22:38.621Z,96140.50
2022-08-07T12:28:09.688Z,96143.81
2022-08-07T12:33:28.205Z,96136.81
2022-08-07T12:38:42.754Z,96133.47
2022-08-07T12:44:03.554Z,96143.09
2022-08-07T12:49:51.215Z,96147.34
2022-08-07T12:55:05.191Z,96136.38
2022-08-07T13:00:51.014Z,96138.03
2022-08-07T13:06:21.865Z,96136.59
2022-08-07T13:12:15.318Z,96136.38
2022-08-07T13:18:00.785Z,96133.25
2022-08-07T13:24:02.011Z,96120.22
2022-08-07T13:29:21.523Z,96117.53
2022-08-07T13:34:48.515Z,96114.84
2022-08-07T13:40:34.847Z,96111.31
2022-08-07T13:46:12.857Z,96118.72
2022-08-07T13:51:27.261Z,96117.97
2022-08-07T13:56:55.866Z,96120.84
2022-08-07T14:02:10.620Z,96110.69
2022-08-07T14:20:39.320Z,96092.28
2022-08-07T14:24:28.897Z,96099.09
2022-08-07T14:30:06.319Z,96103.22
2022-08-07T14:35:34.422Z,96096.81
2022-08-07T14:40:49.408Z,96101.16
2022-08-07T14:45:55.775Z,96099.88
2022-08-07T14:51:06.789Z,96108.72
2022-08-07T14:56:29.876Z,96111.63
2022-08-07T15:01:51.272Z,96104.63
2022-08-07T15:07:21.644Z,96119.13
2022-08-07T15:12:43.648Z,96112.94
2022-08-07T15:18:28.451Z,96099.59
2022-08-07T15:25:03.963Z,96097.75
2022-08-07T15:30:10.046Z,96097.28
2022-08-07T15:34:57.188Z,96096.16
2022-08-07T15:40:11.150Z,96068.56
2022-08-07T15:45:23.095Z,96069.31
2022-08-07T15:51:05.966Z,96066.50
2022-08-07T15:56:11.128Z,96064.13
2022-08-07T16:01:39.510Z,96062.41
2022-08-07T16:07:04.791Z,96061.22
2022-08-07T16:12:12.141Z,96068.88
2022-08-07T16:17:15.398Z,96067.63
2022-08-07T16:22:55.218Z,96062.69
2022-08-07T16:30:07.341Z,96053.38
2022-08-07T16:34:23.705Z,96051.50
2022-08-07T16:39:33.600Z,96057.06
2022-08-07T16:46:21.323Z,96055.44
2022-08-07T16:51:57.570Z,96053.78
2022-08-07T16:58:01.055Z,96049.00
2022-08-07T17:03:17.440Z,96052.50
2022-08-07T17:09:10.761Z,96045.69
2022-08-07T17:14:33.251Z,96062.69
2022-08-07T17:20:01.735Z,96065.97
2022-08-07T17:25:16.742Z,96074.28
2022-08-07T17:30:20.286Z,96072.56
2022-08-07T17:35:54.713Z,96075.06
2022-08-07T17:42:01.162Z,96063.50
2022-08-07T17:46:42.400Z,96059.75
2022-08-07T17:52:42.482Z,96052.34
2022-08-07T17:58:08.809Z,96053.56
2022-08-07T18:03:20.820Z,96056.03
2022-08-07T18:09:02.233Z,96064.91
2022-08-07T18:14:32.948Z,96087.47
2022-08-07T18:21:10.084Z,96097.59
2022-08-07T18:25:40.679Z,96099.00
2022-08-07T18:30:55.383Z,96101.44
2022-08-07T18:36:05.944Z,96108.38
2022-08-07T18:42:21.397Z,96101.72
2022-08-07T18:48:00.743Z,96104.25
2022-08-07T18:53:39.366Z,96111.91
2022-08-07T18:59:02.654Z,96110.28
2022-08-07T19:04:19.676Z,96112.69
2022-08-07T19:09:56.406Z,96116.41
2022-08-07T19:16:05.203Z,96119.44
2022-08-07T19:21:47.750Z,96118.06
2022-08-07T19:27:09.084Z,96122.00
2022-08-07T19:32:18.771Z,96133.63
2022-08-07T19:37:59.695Z,96127.16
2022-08-07T19:43:21.936Z,96130.28
2022-08-07T19:49:04.861Z,96131.47
2022-08-07T19:54:34.122Z,96133.28
2022-08-07T20:00:10.184Z,96125.34
2022-08-07T20:05:19.946Z,96136.31
2022-08-07T20:10:54.717Z,96136.97
2022-08-07T20:15:58.468Z,96138.25
2022-08-07T20:21:02.882Z,96130.78
2022-08-07T20:26:10.038Z,96132.09
2022-08-07T20:31:21.297Z,96141.50
2022-08-07T20:36:31.241Z,96133.53
2022-08-07T20:41:53.161Z,96123.75
2022-08-07T20:47:04.211Z,96123.38
2022-08-07T20:52:17.215Z,96120.59
2022-08-07T20:58:02.454Z,96117.78
2022-08-07T21:03:27.463Z,96112.13
2022-08-07T21:08:58.280Z,96114.63
2022-08-07T21:14:35.401Z,96113.69
2022-08-07T21:19:51.341Z,96116.09
2022-08-07T21:25:56.416Z,96111.53
2022-08-07T21:31:49.376Z,96106.16
2022-08-07T21:37:00.710Z,96119.47
2022-08-07T21:42:46.641Z,96133.03
2022-08-07T21:48:03.001Z,96137.81
2022-08-07T21:53:13.041Z,96131.19
2022-08-07T21:59:07.662Z,96132.53
2022-08-07T22:04:34.207Z,96124.66
2022-08-07T22:09:53.758Z,96134.22
2022-08-07T22:16:41.062Z,96134.22
2022-08-07T22:20:59.115Z,96133.13
2022-08-07T22:26:38.043Z,96127.84
2022-08-07T22:32:06.340Z,96133.41
2022-08-07T22:38:03.233Z,96124.72
2022-08-07T22:43:21.201Z,96120.28
2022-08-07T22:49:00.769Z,96114.81
2022-08-07T22:54:48.944Z,96108.25
2022-08-07T23:00:03.238Z,96124.09
2022-08-07T23:06:08.902Z,96119.19
2022-08-07T23:11:45.866Z,96123.66
2022-08-07T23:17:28.780Z,96119.09
2022-08-07T23:23:14.339Z,96135.56
2022-08-07T23:29:01.762Z,96126.47
2022-08-07T23:34:42.252Z,96132.63
2022-08-07T23:40:12.621Z,96128.88
2022-08-07T23:45:15.107Z,96134.94
2022-08-07T23:50:45.240Z,96131.53
2022-08-07T23:56:02.781Z,96133.03
